Time;durP1;ratioP1;P1;durP2;ratioP2;P2;SDS_P1;SDS_P2;PMS_P1;PMS_P2;Temp;Humidity;BMP_temperature;BMP_pressure;BME280_temperature;BME280_humidity;BME280_pressure;Samples;Min_cycle;Max_cycle;Signal;HPM_P1;HPM_P2
2022/11/15 00:00:07;;;;;;;11.60;9.67;;;;;;;;;;5031719;28;20206;-65
2022/11/15 00:02:33;;;;;;;11.80;9.83;;;;;;;;;;5033289;28;20592;-65
2022/11/15 00:04:58;;;;;;;11.23;10.03;;;;;;;;;;5033380;28;20218;-65
2022/11/15 00:07:24;;;;;;;13.33;10.70;;;;;;;;;;5032944;28;20179;-64
2022/11/15 00:09:50;;;;;;;13.23;9.60;;;;;;;;;;5033313;28;20305;-64
2022/11/15 00:12:16;;;;;;;11.87;10.03;;;;;;;;;;5033245;28;20183;-65
2022/11/15 00:14:42;;;;;;;10.67;9.57;;;;;;;;;;5032823;28;20212;-65
2022/11/15 00:17:08;;;;;;;11.97;9.70;;;;;;;;;;5033384;28;20182;-65
2022/11/15 00:19:34;;;;;;;12.00;9.63;;;;;;;;;;5033020;28;20697;-65
2022/11/15 00:22:00;;;;;;;12.47;10.37;;;;;;;;;;5033338;28;20259;-65
2022/11/15 00:24:26;;;;;;;12.67;9.80;;;;;;;;;;5033564;28;20202;-65
2022/11/15 00:26:52;;;;;;;12.23;10.00;;;;;;;;;;5033336;28;20182;-65
2022/11/15 00:29:18;;;;;;;13.47;10.17;;;;;;;;;;5033064;28;20203;-67
2022/11/15 00:31:44;;;;;;;11.23;10.03;;;;;;;;;;5033056;28;20684;-65
2022/11/15 00:34:10;;;;;;;11.77;9.93;;;;;;;;;;5033252;28;20203;-65
2022/11/15 00:36:36;;;;;;;12.87;10.50;;;;;;;;;;5032958;28;20207;-65
2022/11/15 00:39:05;;;;;;;11.20;9.57;;;;;;;;;;5033186;28;20172;-65
2022/11/15 00:41:31;;;;;;;12.27;9.53;;;;;;;;;;5031497;28;20763;-65
2022/11/15 00:43:57;;;;;;;13.93;10.23;;;;;;;;;;5032963;28;20211;-65
2022/11/15 00:46:23;;;;;;;13.80;10.73;;;;;;;;;;5032645;28;20183;-65
2022/11/15 00:48:49;;;;;;;13.73;10.23;;;;;;;;;;5032652;28;20297;-65
2022/11/15 00:51:15;;;;;;;11.27;9.67;;;;;;;;;;5032448;28;20222;-65
2022/11/15 00:53:41;;;;;;;13.37;10.37;;;;;;;;;;5036269;28;20206;-62
2022/11/15 00:56:07;;;;;;;12.53;10.00;;;;;;;;;;5036316;28;20206;-62
2022/11/15 00:58:33;;;;;;;14.03;10.27;;;;;;;;;;5036275;28;20321;-63
2022/11/15 01:01:09;;;;;;;12.60;9.83;;;;;;;;;;5034906;28;20730;-65
2022/11/15 01:03:36;;;;;;;18.33;10.67;;;;;;;;;;5036748;28;20187;-65
2022/11/15 01:06:02;;;;;;;13.00;10.20;;;;;;;;;;5036338;28;20249;-65
2022/11/15 01:08:28;;;;;;;11.30;9.37;;;;;;;;;;5034917;28;20640;-63
2022/11/15 01:10:54;;;;;;;14.13;10.67;;;;;;;;;;5036248;28;20235;-65
2022/11/15 01:13:20;;;;;;;11.77;9.90;;;;;;;;;;5036552;28;20261;-64
2022/11/15 01:15:46;;;;;;;15.03;10.43;;;;;;;;;;5036424;28;20171;-65
2022/11/15 01:18:12;;;;;;;14.63;9.70;;;;;;;;;;5036039;28;20181;-66
2022/11/15 01:20:42;;;;;;;13.63;10.10;;;;;;;;;;5035858;28;20270;-64
2022/11/15 01:23:08;;;;;;;15.83;10.13;;;;;;;;;;5035967;28;20644;-64
2022/11/15 01:25:34;;;;;;;13.13;9.70;;;;;;;;;;5035896;28;20195;-64
2022/11/15 01:27:59;;;;;;;12.23;9.47;;;;;;;;;;5034604;28;20301;-64
2022/11/15 01:30:25;;;;;;;12.77;10.23;;;;;;;;;;5035691;28;20227;-64
2022/11/15 01:32:51;;;;;;;11.00;9.50;;;;;;;;;;5034369;28;20198;-64
2022/11/15 01:35:17;;;;;;;11.40;9.33;;;;;;;;;;5035804;28;20260;-64
2022/11/15 01:37:43;;;;;;;13.10;10.27;;;;;;;;;;5034322;28;20175;-64
2022/11/15 01:40:09;;;;;;;18.90;9.90;;;;;;;;;;5035507;28;20274;-64
2022/11/15 01:42:35;;;;;;;13.03;9.97;;;;;;;;;;5035969;28;20567;-64
2022/11/15 01:45:01;;;;;;;13.70;10.07;;;;;;;;;;5035563;28;20229;-64
2022/11/15 01:47:33;;;;;;;12.63;9.47;;;;;;;;;;5035640;28;20186;-63
2022/11/15 01:50:08;;;;;;;17.23;10.97;;;;;;;;;;5035506;28;20695;-64
2022/11/15 01:52:35;;;;;;;11.53;9.47;;;;;;;;;;5035268;28;20236;-64
2022/11/15 01:55:07;;;;;;;14.30;10.27;;;;;;;;;;5033894;28;20207;-64
2022/11/15 01:57:34;;;;;;;13.80;9.90;;;;;;;;;;5035427;28;20198;-64
2022/11/15 02:00:01;;;;;;;13.20;9.63;;;;;;;;;;5034027;28;20238;-64
2022/11/15 02:02:27;;;;;;;10.87;9.37;;;;;;;;;;5035347;28;20189;-64
2022/11/15 02:04:53;;;;;;;11.53;8.90;;;;;;;;;;5035319;28;20214;-63
2022/11/15 02:07:20;;;;;;;14.27;9.70;;;;;;;;;;5035103;28;20549;-64
2022/11/15 02:09:46;;;;;;;10.90;9.20;;;;;;;;;;5035614;28;20709;-64
2022/11/15 02:12:14;;;;;;;11.63;9.37;;;;;;;;;;5034998;28;20187;-64
2022/11/15 02:14:41;;;;;;;13.63;9.37;;;;;;;;;;5035017;28;20612;-64
2022/11/15 02:17:10;;;;;;;12.77;9.53;;;;;;;;;;5035088;28;20549;-64
2022/11/15 02:19:50;;;;;;;12.07;9.50;;;;;;;;;;5033539;28;20199;-64
2022/11/15 02:22:31;;;;;;;11.07;9.30;;;;;;;;;;5034807;28;20242;-64
2022/11/15 02:24:59;;;;;;;12.23;9.73;;;;;;;;;;5034755;28;20176;-64
2022/11/15 02:27:25;;;;;;;10.67;9.60;;;;;;;;;;5033269;28;20183;-64
2022/11/15 02:30:03;;;;;;;11.83;9.50;;;;;;;;;;5034577;28;20324;-62
2022/11/15 02:32:35;;;;;;;14.80;9.60;;;;;;;;;;5034747;28;20182;-64
2022/11/15 02:35:19;;;;;;;13.00;9.23;;;;;;;;;;5034673;28;20754;-64
2022/11/15 02:37:52;;;;;;;13.30;9.07;;;;;;;;;;5034512;28;20183;-64
2022/11/15 02:40:31;;;;;;;13.67;9.47;;;;;;;;;;5034425;28;20206;-64
2022/11/15 02:45:48;;;;;;;10.90;9.13;;;;;;;;;;5034793;28;20689;-64
2022/11/15 02:48:16;;;;;;;11.37;9.00;;;;;;;;;;5034566;28;20202;-64
2022/11/15 02:50:43;;;;;;;11.17;8.53;;;;;;;;;;5032650;28;20218;-64
2022/11/15 02:53:09;;;;;;;13.27;9.00;;;;;;;;;;5034627;28;20171;-64
2022/11/15 02:55:38;;;;;;;15.53;9.20;;;;;;;;;;5033558;28;20244;-63
2022/11/15 02:58:10;;;;;;;18.73;9.63;;;;;;;;;;5034381;28;20241;-64
2022/11/15 03:00:41;;;;;;;12.47;9.27;;;;;;;;;;5034176;28;20191;-64
2022/11/15 03:03:16;;;;;;;11.60;8.80;;;;;;;;;;5034563;28;20164;-64
2022/11/15 03:05:52;;;;;;;14.03;8.57;;;;;;;;;;5032793;28;20582;-65
2022/11/15 03:08:17;;;;;;;12.77;9.10;;;;;;;;;;5033864;28;20174;-64
2022/11/15 03:10:46;;;;;;;10.43;9.33;;;;;;;;;;5033819;28;20203;-63
2022/11/15 03:13:12;;;;;;;10.37;8.70;;;;;;;;;;5032498;28;20175;-64
2022/11/15 03:15:40;;;;;;;12.87;9.30;;;;;;;;;;5033142;28;20175;-63
2022/11/15 03:18:36;;;;;;;14.80;9.27;;;;;;;;;;5034218;28;20178;-64
2022/11/15 03:21:04;;;;;;;10.23;9.10;;;;;;;;;;5021103;28;20214;-64
2022/11/15 03:23:31;;;;;;;10.90;8.70;;;;;;;;;;5048907;22;20405;-67
2022/11/15 03:25:58;;;;;;;13.03;8.93;;;;;;;;;;5033750;28;20237;-69
2022/11/15 03:28:28;;;;;;;11.67;8.97;;;;;;;;;;5033865;28;20194;-68
2022/11/15 03:30:55;;;;;;;11.90;8.93;;;;;;;;;;5033563;28;20636;-69
2022/11/15 03:33:22;;;;;;;11.13;8.50;;;;;;;;;;5032084;28;20206;-67
2022/11/15 03:35:49;;;;;;;13.77;9.50;;;;;;;;;;5033862;28;20182;-68
2022/11/15 03:38:14;;;;;;;13.73;9.87;;;;;;;;;;5032306;28;20186;-69
2022/11/15 03:40:42;;;;;;;11.03;9.33;;;;;;;;;;5033324;28;20179;-69
2022/11/15 03:43:17;;;;;;;10.87;9.13;;;;;;;;;;5033459;28;20195;-67
2022/11/15 03:46:13;;;;;;;11.37;9.57;;;;;;;;;;5033454;28;20194;-69
2022/11/15 03:48:41;;;;;;;11.40;9.30;;;;;;;;;;5020637;28;20199;-69
2022/11/15 03:51:07;;;;;;;14.00;10.43;;;;;;;;;;5033253;28;20306;-69
2022/11/15 03:53:33;;;;;;;13.20;10.20;;;;;;;;;;5033045;28;20294;-69
2022/11/15 03:55:59;;;;;;;13.60;10.50;;;;;;;;;;5031808;28;20189;-70
2022/11/15 03:58:25;;;;;;;12.73;9.23;;;;;;;;;;5033179;28;20175;-69
2022/11/15 04:00:51;;;;;;;10.13;8.97;;;;;;;;;;5033057;28;20234;-69
2022/11/15 04:03:17;;;;;;;10.47;9.37;;;;;;;;;;5033005;28;20199;-69
2022/11/15 04:05:43;;;;;;;15.50;9.97;;;;;;;;;;5031665;28;20257;-69
2022/11/15 04:08:09;;;;;;;14.20;9.20;;;;;;;;;;5032904;28;20182;-69
2022/11/15 04:10:35;;;;;;;12.70;9.57;;;;;;;;;;5031634;28;20185;-69
2022/11/15 04:13:02;;;;;;;11.63;9.07;;;;;;;;;;5031590;28;20202;-69
2022/11/15 04:15:29;;;;;;;12.43;9.57;;;;;;;;;;5033031;28;20629;-70
2022/11/15 04:17:56;;;;;;;11.90;9.23;;;;;;;;;;5033085;28;20620;-69
2022/11/15 04:26:17;;;;;;;11.87;9.20;;;;;;;;;;5031375;28;20193;-69
2022/11/15 04:31:28;;;;;;;13.27;9.13;;;;;;;;;;5037093;28;20545;-71
2022/11/15 04:33:54;;;;;;;11.23;9.37;;;;;;;;;;5036739;28;20209;-69
2022/11/15 04:39:06;;;;;;;13.07;9.00;;;;;;;;;;5037152;28;20175;-69
2022/11/15 04:41:31;;;;;;;12.00;9.17;;;;;;;;;;5035063;28;20176;-69
2022/11/15 04:43:58;;;;;;;9.70;8.10;;;;;;;;;;5036284;28;20246;-70
2022/11/15 04:46:24;;;;;;;11.23;8.40;;;;;;;;;;5035066;28;20623;-69
2022/11/15 04:48:51;;;;;;;12.43;8.53;;;;;;;;;;5034912;28;20190;-69
2022/11/15 04:51:17;;;;;;;10.73;7.97;;;;;;;;;;5034983;28;20179;-69
2022/11/15 04:53:43;;;;;;;8.93;8.03;;;;;;;;;;5036171;28;20230;-70
2022/11/15 04:56:09;;;;;;;10.20;7.87;;;;;;;;;;5036252;28;20666;-70
2022/11/15 04:58:35;;;;;;;11.80;8.53;;;;;;;;;;5034869;28;20175;-70
2022/11/15 05:01:11;;;;;;;13.53;8.27;;;;;;;;;;5036062;28;20255;-69
2022/11/15 05:06:22;;;;;;;8.63;7.63;;;;;;;;;;5036432;28;20674;-70
2022/11/15 05:08:48;;;;;;;10.90;8.33;;;;;;;;;;5034548;28;20179;-70
2022/11/15 05:11:14;;;;;;;11.60;8.20;;;;;;;;;;5034602;28;20193;-70
2022/11/15 05:13:40;;;;;;;11.13;8.50;;;;;;;;;;5035649;28;20238;-70
2022/11/15 05:16:06;;;;;;;11.37;8.10;;;;;;;;;;5036068;28;20180;-70
2022/11/15 05:18:32;;;;;;;11.80;8.40;;;;;;;;;;5034687;28;20182;-70
2022/11/15 05:21:04;;;;;;;8.90;7.23;;;;;;;;;;5036004;28;20579;-69
2022/11/15 05:23:29;;;;;;;10.93;7.73;;;;;;;;;;5035793;28;20226;-70
2022/11/15 05:25:59;;;;;;;8.10;7.30;;;;;;;;;;5035855;28;20175;-70
2022/11/15 05:28:25;;;;;;;8.33;7.20;;;;;;;;;;5035817;28;20171;-70
2022/11/15 05:30:51;;;;;;;9.13;7.30;;;;;;;;;;5035754;28;20554;-69
2022/11/15 05:33:17;;;;;;;9.40;7.40;;;;;;;;;;5035555;28;20234;-70
2022/11/15 05:35:47;;;;;;;8.63;7.73;;;;;;;;;;5035535;28;20254;-70
2022/11/15 05:38:12;;;;;;;8.23;7.33;;;;;;;;;;5033896;28;20593;-68
2022/11/15 05:40:39;;;;;;;10.00;6.83;;;;;;;;;;5035950;28;20175;-69
2022/11/15 05:43:05;;;;;;;10.57;8.97;;;;;;;;;;5035353;28;20202;-69
2022/11/15 05:45:33;;;;;;;9.07;7.83;;;;;;;;;;5034108;28;20658;-70
2022/11/15 05:48:00;;;;;;;11.23;8.80;;;;;;;;;;5034080;28;20236;-69
2022/11/15 05:50:26;;;;;;;11.47;8.80;;;;;;;;;;5033925;28;20282;-69
2022/11/15 05:52:52;;;;;;;10.00;8.50;;;;;;;;;;5035149;28;20230;-69
2022/11/15 05:55:18;;;;;;;10.13;8.87;;;;;;;;;;5035585;28;20207;-69
2022/11/15 05:57:45;;;;;;;12.27;8.30;;;;;;;;;;5035265;28;20219;-69
2022/11/15 06:00:11;;;;;;;14.53;11.17;;;;;;;;;;5036006;28;20658;-70
2022/11/15 06:02:37;;;;;;;11.00;9.90;;;;;;;;;;5035263;28;20621;-69
2022/11/15 06:05:03;;;;;;;10.23;8.77;;;;;;;;;;5035124;28;20180;-69
2022/11/15 06:07:30;;;;;;;11.03;8.20;;;;;;;;;;5035405;28;20175;-69
2022/11/15 06:09:56;;;;;;;12.20;9.13;;;;;;;;;;5035774;28;20190;-68
2022/11/15 06:12:22;;;;;;;8.47;7.63;;;;;;;;;;5034998;28;20621;-69
2022/11/15 06:14:48;;;;;;;12.43;8.30;;;;;;;;;;5033551;28;20663;-69
2022/11/15 06:17:14;;;;;;;9.67;8.50;;;;;;;;;;5033428;28;20202;-69
2022/11/15 06:19:40;;;;;;;9.80;8.23;;;;;;;;;;5034776;28;20186;-68
2022/11/15 06:22:06;;;;;;;9.53;8.37;;;;;;;;;;5034770;28;20215;-70
2022/11/15 06:24:32;;;;;;;9.87;8.30;;;;;;;;;;5034758;28;20222;-70
2022/11/15 06:26:58;;;;;;;9.87;8.30;;;;;;;;;;5033441;28;20205;-71
2022/11/15 06:29:25;;;;;;;9.80;8.20;;;;;;;;;;5034846;28;20206;-70
2022/11/15 06:31:51;;;;;;;9.70;8.33;;;;;;;;;;5035005;28;20175;-69
2022/11/15 06:34:17;;;;;;;9.60;8.30;;;;;;;;;;5034395;28;20252;-69
2022/11/15 06:36:43;;;;;;;10.73;8.17;;;;;;;;;;5034366;28;20207;-69
2022/11/15 06:39:09;;;;;;;9.70;8.30;;;;;;;;;;5033192;28;20187;-69
2022/11/15 06:41:35;;;;;;;8.60;7.70;;;;;;;;;;5034936;28;20178;-69
2022/11/15 06:44:01;;;;;;;8.97;7.53;;;;;;;;;;5034338;28;20207;-69
2022/11/15 06:46:27;;;;;;;8.17;7.37;;;;;;;;;;5036230;28;20257;-69
2022/11/15 06:48:54;;;;;;;9.03;7.70;;;;;;;;;;5035494;28;20183;-69
2022/11/15 06:51:20;;;;;;;9.17;7.73;;;;;;;;;;5034190;28;20183;-68
2022/11/15 06:53:46;;;;;;;8.33;7.37;;;;;;;;;;5034466;28;20277;-68
2022/11/15 06:56:12;;;;;;;9.87;7.57;;;;;;;;;;5034643;28;20642;-68
2022/11/15 06:58:38;;;;;;;11.07;7.33;;;;;;;;;;5033019;28;20567;-68
2022/11/15 07:01:05;;;;;;;8.97;7.00;;;;;;;;;;5033303;28;20172;-69
2022/11/15 07:03:31;;;;;;;8.70;7.03;;;;;;;;;;5032863;28;20738;-69
2022/11/15 07:05:57;;;;;;;8.37;6.70;;;;;;;;;;5032837;28;20214;-68
2022/11/15 07:08:24;;;;;;;7.90;7.03;;;;;;;;;;5033934;28;20267;-70
2022/11/15 07:10:50;;;;;;;7.20;6.50;;;;;;;;;;5032556;28;20244;-68
2022/11/15 07:13:16;;;;;;;8.23;6.87;;;;;;;;;;5033653;28;20209;-69
2022/11/15 07:15:42;;;;;;;8.27;6.70;;;;;;;;;;5033768;28;20171;-69
2022/11/15 07:18:08;;;;;;;7.43;6.50;;;;;;;;;;5032387;28;20183;-69
2022/11/15 07:20:34;;;;;;;6.50;5.50;;;;;;;;;;5033748;28;20265;-69
2022/11/15 07:23:04;;;;;;;7.33;5.80;;;;;;;;;;5033479;28;20263;-69
2022/11/15 07:25:30;;;;;;;6.10;5.47;;;;;;;;;;5033982;28;20264;-70
2022/11/15 07:27:57;;;;;;;7.20;5.73;;;;;;;;;;5032391;28;20625;-69
2022/11/15 07:30:23;;;;;;;9.07;5.93;;;;;;;;;;5033620;28;20222;-69
2022/11/15 07:32:53;;;;;;;7.87;5.87;;;;;;;;;;5032116;28;20234;-70
2022/11/15 07:35:19;;;;;;;7.03;5.70;;;;;;;;;;5033450;28;20274;-69
2022/11/15 07:37:53;;;;;;;9.33;5.43;;;;;;;;;;5032588;28;20254;-69
2022/11/15 07:40:18;;;;;;;7.67;5.43;;;;;;;;;;5033779;28;20167;-70
2022/11/15 07:42:53;;;;;;;8.70;5.07;;;;;;;;;;5032243;28;20737;-69
2022/11/15 07:45:20;;;;;;;6.07;5.13;;;;;;;;;;5033678;28;20163;-69
2022/11/15 07:47:47;;;;;;;5.57;3.73;;;;;;;;;;5033399;28;20266;-70
2022/11/15 07:50:13;;;;;;;4.77;3.27;;;;;;;;;;5033828;28;20206;-70
2022/11/15 07:52:39;;;;;;;9.03;3.90;;;;;;;;;;5036729;28;20195;-70
2022/11/15 07:55:05;;;;;;;6.33;3.97;;;;;;;;;;5034738;28;20249;-70
2022/11/15 07:57:31;;;;;;;4.47;3.30;;;;;;;;;;5033587;28;20175;-70
2022/11/15 07:59:57;;;;;;;4.37;2.43;;;;;;;;;;5033551;28;20258;-70
2022/11/15 08:02:23;;;;;;;2.70;2.17;;;;;;;;;;5033566;28;20195;-69
2022/11/15 08:04:49;;;;;;;3.23;2.10;;;;;;;;;;5033185;28;20175;-69
2022/11/15 08:07:15;;;;;;;3.13;2.37;;;;;;;;;;5031725;28;20185;-69
2022/11/15 08:09:41;;;;;;;4.10;2.40;;;;;;;;;;5031767;28;20183;-70
2022/11/15 08:12:07;;;;;;;3.90;2.40;;;;;;;;;;5032987;28;20189;-68
2022/11/15 08:14:33;;;;;;;4.70;2.70;;;;;;;;;;5033049;28;20203;-70
2022/11/15 08:16:59;;;;;;;5.60;2.23;;;;;;;;;;5031744;28;20554;-69
2022/11/15 08:19:25;;;;;;;7.67;2.40;;;;;;;;;;5033084;28;20183;-69
2022/11/15 08:21:51;;;;;;;3.73;2.30;;;;;;;;;;5032878;28;20198;-69
2022/11/15 08:24:17;;;;;;;3.70;1.97;;;;;;;;;;5032691;28;20623;-69
2022/11/15 08:26:43;;;;;;;3.93;2.03;;;;;;;;;;5033080;28;20179;-69
2022/11/15 08:29:09;;;;;;;3.50;2.00;;;;;;;;;;5033118;28;20189;-68
2022/11/15 08:31:36;;;;;;;2.87;2.20;;;;;;;;;;5032947;28;20652;-69
2022/11/15 08:34:02;;;;;;;4.93;2.20;;;;;;;;;;5031516;28;20213;-70
2022/11/15 08:36:28;;;;;;;4.90;2.87;;;;;;;;;;5032857;28;20180;-69
2022/11/15 08:38:54;;;;;;;6.80;3.03;;;;;;;;;;5032758;28;20183;-69
2022/11/15 08:41:25;;;;;;;6.13;2.57;;;;;;;;;;5031493;28;20186;-69
2022/11/15 08:43:51;;;;;;;5.07;3.07;;;;;;;;;;5032945;28;20298;-70
2022/11/15 08:46:18;;;;;;;5.27;3.30;;;;;;;;;;5032220;28;20344;-69
2022/11/15 08:48:44;;;;;;;5.67;3.27;;;;;;;;;;5033275;28;20199;-69
2022/11/15 08:51:10;;;;;;;8.57;4.20;;;;;;;;;;5031477;28;20538;-69
2022/11/15 08:53:35;;;;;;;10.27;4.30;;;;;;;;;;5032406;28;20585;-68
2022/11/15 08:56:02;;;;;;;7.27;3.63;;;;;;;;;;5033068;28;20229;-68
2022/11/15 08:58:28;;;;;;;8.40;3.80;;;;;;;;;;5031215;28;20230;-68
2022/11/15 09:00:54;;;;;;;5.90;3.80;;;;;;;;;;5031206;28;20655;-68
2022/11/15 09:03:20;;;;;;;6.70;3.37;;;;;;;;;;5032452;28;20206;-69
2022/11/15 09:05:46;;;;;;;9.73;3.83;;;;;;;;;;5032710;28;20175;-69
2022/11/15 09:08:12;;;;;;;5.97;3.33;;;;;;;;;;5031201;28;20680;-69
2022/11/15 09:10:38;;;;;;;5.77;3.20;;;;;;;;;;5031170;28;20218;-69
2022/11/15 09:13:04;;;;;;;4.13;2.77;;;;;;;;;;5033178;28;20195;-69
2022/11/15 09:15:30;;;;;;;6.40;3.00;;;;;;;;;;5036345;28;20198;-69
2022/11/15 09:17:59;;;;;;;3.37;3.07;;;;;;;;;;5034642;28;20183;-69
2022/11/15 09:20:25;;;;;;;4.23;3.17;;;;;;;;;;5036010;28;20516;-69
2022/11/15 09:22:51;;;;;;;5.77;3.37;;;;;;;;;;5035639;28;20325;-69
2022/11/15 09:25:17;;;;;;;6.90;3.37;;;;;;;;;;5036092;28;20270;-69
2022/11/15 09:27:43;;;;;;;6.90;4.00;;;;;;;;;;5034516;28;20183;-69
2022/11/15 09:30:09;;;;;;;4.47;3.93;;;;;;;;;;5036074;28;20183;-69
2022/11/15 09:32:35;;;;;;;4.90;4.07;;;;;;;;;;5035684;28;20577;-69
2022/11/15 09:35:01;;;;;;;7.10;4.90;;;;;;;;;;5034583;28;20202;-69
2022/11/15 09:37:27;;;;;;;4.87;4.20;;;;;;;;;;5036985;28;20179;-69
2022/11/15 09:39:53;;;;;;;8.97;4.50;;;;;;;;;;5036086;28;20237;-69
2022/11/15 09:42:26;;;;;;;6.03;4.90;;;;;;;;;;5034109;28;20205;-69
2022/11/15 09:45:04;;;;;;;7.60;5.13;;;;;;;;;;5035817;28;20191;-69
2022/11/15 09:47:49;;;;;;;6.17;5.57;;;;;;;;;;5034235;28;20527;-69
2022/11/15 09:50:18;;;;;;;11.10;5.43;;;;;;;;;;5035406;28;20202;-69
2022/11/15 09:52:45;;;;;;;7.67;5.67;;;;;;;;;;5035458;28;20198;-69
2022/11/15 09:55:14;;;;;;;8.83;5.40;;;;;;;;;;5035243;28;20227;-69
2022/11/15 09:57:51;;;;;;;7.23;5.33;;;;;;;;;;5035286;28;20175;-69
2022/11/15 10:00:21;;;;;;;6.53;4.47;;;;;;;;;;5035317;28;20237;-68
2022/11/15 10:02:58;;;;;;;5.90;4.60;;;;;;;;;;5035106;28;20205;-69
2022/11/15 10:05:25;;;;;;;4.07;3.67;;;;;;;;;;5035261;28;20603;-68
2022/11/15 10:08:11;;;;;;;7.57;4.37;;;;;;;;;;5035334;28;20179;-67
2022/11/15 10:10:39;;;;;;;4.93;3.80;;;;;;;;;;5034962;28;20177;-69
2022/11/15 10:13:11;;;;;;;5.13;3.50;;;;;;;;;;5033529;28;20618;-69
2022/11/15 10:15:37;;;;;;;3.97;3.23;;;;;;;;;;5034776;28;20195;-69
2022/11/15 10:18:15;;;;;;;6.60;3.60;;;;;;;;;;5035241;28;20258;-69
2022/11/15 10:20:47;;;;;;;6.83;3.23;;;;;;;;;;5033798;28;20175;-68
2022/11/15 10:23:14;;;;;;;4.03;2.83;;;;;;;;;;5033504;28;20221;-69
2022/11/15 10:25:40;;;;;;;4.33;2.83;;;;;;;;;;5033452;28;20190;-68
2022/11/15 10:28:25;;;;;;;5.87;3.07;;;;;;;;;;5034971;28;20183;-68
2022/11/15 10:30:53;;;;;;;3.90;3.10;;;;;;;;;;5035119;28;20183;-69
2022/11/15 10:33:27;;;;;;;4.90;3.27;;;;;;;;;;5034645;28;20203;-68
2022/11/15 10:36:11;;;;;;;3.57;2.97;;;;;;;;;;5034687;28;20771;-69
2022/11/15 10:38:52;;;;;;;3.90;2.77;;;;;;;;;;5034691;28;20175;-68
2022/11/15 10:41:27;;;;;;;5.30;3.10;;;;;;;;;;5034515;28;20163;-69
2022/11/15 10:44:13;;;;;;;5.00;2.27;;;;;;;;;;5034524;28;20203;-69
2022/11/15 10:46:40;;;;;;;5.63;2.90;;;;;;;;;;5032374;28;20289;-69
2022/11/15 10:49:16;;;;;;;2.83;2.50;;;;;;;;;;5034489;28;20179;-69
2022/11/15 10:51:48;;;;;;;3.70;2.30;;;;;;;;;;5033094;28;20232;-68
2022/11/15 10:54:17;;;;;;;7.13;2.40;;;;;;;;;;5033949;28;20199;-68
2022/11/15 10:56:43;;;;;;;3.93;2.13;;;;;;;;;;5034309;28;20179;-68
2022/11/15 10:59:16;;;;;;;2.73;2.00;;;;;;;;;;5034626;28;20175;-68
2022/11/15 11:01:48;;;;;;;4.17;2.10;;;;;;;;;;5033075;28;20171;-68
2022/11/15 11:04:14;;;;;;;4.43;2.90;;;;;;;;;;5034130;28;20579;-68
2022/11/15 11:06:49;;;;;;;5.53;3.27;;;;;;;;;;5048475;22;20220;-64
2022/11/15 11:09:23;;;;;;;6.47;3.13;;;;;;;;;;5014989;28;20168;-64
2022/11/15 11:11:51;;;;;;;3.47;2.57;;;;;;;;;;5014540;28;20314;-64
2022/11/15 11:14:36;;;;;;;4.63;2.70;;;;;;;;;;5014196;28;20204;-64
2022/11/15 11:17:20;;;;;;;7.10;3.53;;;;;;;;;;5012751;28;20199;-64
2022/11/15 11:19:57;;;;;;;4.90;2.70;;;;;;;;;;5014541;28;20175;-65
2022/11/15 11:22:27;;;;;;;3.20;2.70;;;;;;;;;;5014124;28;20176;-64
2022/11/15 11:24:53;;;;;;;5.10;2.73;;;;;;;;;;5013991;28;20233;-64
2022/11/15 11:27:42;;;;;;;7.20;2.87;;;;;;;;;;5013751;28;20199;-64
2022/11/15 11:30:18;;;;;;;3.03;2.30;;;;;;;;;;5014072;28;20222;-64
2022/11/15 11:32:50;;;;;;;6.30;2.50;;;;;;;;;;5014222;28;20651;-65
2022/11/15 11:35:21;;;;;;;6.20;2.40;;;;;;;;;;5014089;28;20203;-64
2022/11/15 11:37:50;;;;;;;6.13;2.27;;;;;;;;;;5013819;28;20207;-64
2022/11/15 11:40:25;;;;;;;4.53;2.03;;;;;;;;;;5014094;28;20254;-64
2022/11/15 11:43:01;;;;;;;3.10;1.87;;;;;;;;;;5014361;28;20160;-64
2022/11/15 11:45:49;;;;;;;3.13;2.00;;;;;;;;;;5013730;28;20246;-64
2022/11/15 11:48:30;;;;;;;9.73;2.60;;;;;;;;;;5013649;28;20604;-64
2022/11/15 11:51:01;;;;;;;4.47;2.30;;;;;;;;;;5013726;28;20168;-64
2022/11/15 11:53:36;;;;;;;4.90;2.40;;;;;;;;;;5013831;28;20172;-64
2022/11/15 11:56:05;;;;;;;4.63;2.17;;;;;;;;;;5013718;28;20223;-67
2022/11/15 11:58:36;;;;;;;5.20;2.23;;;;;;;;;;5012255;28;20198;-64
2022/11/15 12:01:20;;;;;;;3.63;2.30;;;;;;;;;;5013543;28;20245;-64
2022/11/15 12:03:53;;;;;;;5.07;2.40;;;;;;;;;;5012011;28;20592;-65
2022/11/15 12:06:34;;;;;;;4.77;2.27;;;;;;;;;;5013290;28;20746;-64
2022/11/15 12:09:06;;;;;;;3.37;1.93;;;;;;;;;;5013575;28;20249;-64
2022/11/15 12:11:50;;;;;;;4.57;2.43;;;;;;;;;;5015238;28;20183;-64
2022/11/15 12:14:29;;;;;;;4.57;2.40;;;;;;;;;;5013213;28;20208;-64
2022/11/15 12:16:55;;;;;;;5.90;2.60;;;;;;;;;;5013199;28;20195;-66
2022/11/15 12:19:21;;;;;;;3.20;2.10;;;;;;;;;;5013505;28;20180;-64
2022/11/15 12:21:49;;;;;;;5.03;1.90;;;;;;;;;;5013179;28;20179;-64
2022/11/15 12:24:19;;;;;;;7.63;1.90;;;;;;;;;;5013133;28;20238;-64
2022/11/15 12:26:50;;;;;;;5.43;1.77;;;;;;;;;;5012015;28;20207;-63
2022/11/15 12:29:24;;;;;;;4.20;1.90;;;;;;;;;;5013231;28;20718;-64
2022/11/15 12:31:51;;;;;;;3.83;1.93;;;;;;;;;;5013415;28;20179;-64
2022/11/15 12:34:20;;;;;;;2.47;1.73;;;;;;;;;;5014009;28;20207;-64
2022/11/15 12:36:47;;;;;;;7.13;1.30;;;;;;;;;;5013211;28;20647;-63
2022/11/15 12:39:14;;;;;;;3.07;1.87;;;;;;;;;;5012012;28;20648;-63
2022/11/15 12:41:41;;;;;;;3.80;1.60;;;;;;;;;;5013239;28;20180;-63
2022/11/15 12:44:11;;;;;;;3.40;1.50;;;;;;;;;;5011817;28;20188;-63
2022/11/15 12:46:41;;;;;;;8.17;1.93;;;;;;;;;;5013348;28;20684;-63
2022/11/15 12:49:11;;;;;;;4.47;1.60;;;;;;;;;;5015798;28;20249;-63
2022/11/15 12:51:43;;;;;;;3.90;1.60;;;;;;;;;;5015945;28;20196;-63
2022/11/15 12:54:22;;;;;;;3.60;1.57;;;;;;;;;;5017509;28;20199;-63
2022/11/15 12:57:00;;;;;;;3.33;1.83;;;;;;;;;;5017455;28;20325;-64
2022/11/15 12:59:45;;;;;;;2.13;1.27;;;;;;;;;;5017123;28;20528;-64
2022/11/15 13:02:18;;;;;;;4.63;1.60;;;;;;;;;;5016744;28;20548;-64
2022/11/15 13:04:44;;;;;;;4.47;1.70;;;;;;;;;;5015539;28;20270;-64
2022/11/15 13:07:30;;;;;;;2.77;1.30;;;;;;;;;;5016423;28;20243;-66
2022/11/15 13:09:56;;;;;;;3.87;1.43;;;;;;;;;;5016654;28;20234;-64
2022/11/15 13:12:28;;;;;;;4.50;1.93;;;;;;;;;;5016513;28;20188;-64
2022/11/15 13:14:58;;;;;;;2.57;1.40;;;;;;;;;;5015326;28;20207;-64
2022/11/15 13:17:40;;;;;;;4.07;1.80;;;;;;;;;;5016498;28;20257;-64
2022/11/15 13:20:10;;;;;;;3.73;1.63;;;;;;;;;;5016649;28;20206;-64
2022/11/15 13:22:52;;;;;;;10.10;1.77;;;;;;;;;;5016744;28;20168;-64
2022/11/15 13:25:21;;;;;;;6.53;1.60;;;;;;;;;;5015182;28;20174;-65
2022/11/15 13:27:48;;;;;;;4.47;2.07;;;;;;;;;;5014917;28;20294;-69
2022/11/15 13:30:19;;;;;;;3.97;1.63;;;;;;;;;;5016339;28;20186;-64
2022/11/15 13:32:45;;;;;;;3.43;1.60;;;;;;;;;;5016167;28;20265;-64
2022/11/15 13:35:19;;;;;;;3.40;1.80;;;;;;;;;;5016279;28;20679;-65
2022/11/15 13:37:48;;;;;;;2.80;1.53;;;;;;;;;;5018959;28;20202;-64
2022/11/15 13:40:23;;;;;;;3.13;1.70;;;;;;;;;;5019461;28;20190;-66
2022/11/15 13:42:50;;;;;;;3.17;1.70;;;;;;;;;;5017467;28;20705;-63
2022/11/15 13:45:17;;;;;;;6.00;1.90;;;;;;;;;;5018039;28;20184;-63
2022/11/15 13:47:43;;;;;;;2.60;1.60;;;;;;;;;;5016709;28;20211;-63
2022/11/15 13:50:13;;;;;;;4.27;1.70;;;;;;;;;;5017640;28;20557;-63
2022/11/15 13:52:42;;;;;;;4.13;2.13;;;;;;;;;;5018000;28;20191;-64
2022/11/15 13:55:20;;;;;;;6.63;1.70;;;;;;;;;;5014440;28;20262;-64
2022/11/15 13:57:48;;;;;;;3.67;1.83;;;;;;;;;;5015908;28;20202;-62
2022/11/15 14:00:23;;;;;;;4.27;1.60;;;;;;;;;;5013955;28;20284;-62
2022/11/15 14:02:49;;;;;;;11.37;1.97;;;;;;;;;;5014820;28;20270;-62
2022/11/15 14:05:19;;;;;;;3.13;1.57;;;;;;;;;;5015597;28;20686;-62
2022/11/15 14:07:56;;;;;;;5.23;1.97;;;;;;;;;;5015407;28;20221;-62
2022/11/15 14:10:30;;;;;;;2.23;1.80;;;;;;;;;;5014380;28;20184;-62
2022/11/15 14:12:56;;;;;;;2.97;1.50;;;;;;;;;;5015492;28;20183;-62
2022/11/15 14:15:25;;;;;;;3.57;1.77;;;;;;;;;;5013954;28;20270;-63
2022/11/15 14:17:51;;;;;;;3.87;1.63;;;;;;;;;;5013993;28;20199;-63
2022/11/15 14:20:30;;;;;;;3.27;1.80;;;;;;;;;;5015430;28;20260;-62
2022/11/15 14:23:04;;;;;;;6.50;1.60;;;;;;;;;;5015654;28;20332;-62
2022/11/15 14:25:34;;;;;;;6.00;1.60;;;;;;;;;;5015298;28;20184;-62
2022/11/15 14:28:10;;;;;;;2.97;1.83;;;;;;;;;;5015078;28;20176;-62
2022/11/15 14:30:35;;;;;;;4.53;1.80;;;;;;;;;;5013902;28;20187;-62
2022/11/15 14:33:02;;;;;;;2.90;1.70;;;;;;;;;;5013773;28;20608;-65
2022/11/15 14:35:28;;;;;;;5.70;1.50;;;;;;;;;;5013834;28;20234;-65
2022/11/15 14:37:54;;;;;;;6.43;1.70;;;;;;;;;;5015146;28;20692;-64
2022/11/15 14:40:22;;;;;;;4.60;2.00;;;;;;;;;;5015126;28;20180;-64
2022/11/15 14:42:49;;;;;;;2.47;1.50;;;;;;;;;;5015244;28;20183;-64
2022/11/15 14:45:16;;;;;;;3.83;1.60;;;;;;;;;;5013782;28;20193;-66
2022/11/15 14:47:42;;;;;;;4.57;1.70;;;;;;;;;;5013753;28;20210;-63
2022/11/15 14:50:12;;;;;;;5.83;1.97;;;;;;;;;;5015134;28;20230;-65
2022/11/15 14:52:39;;;;;;;5.00;2.33;;;;;;;;;;5013615;28;20230;-65
2022/11/15 14:55:10;;;;;;;20.97;15.53;;;;;;;;;;5015737;28;20282;-64
2022/11/15 14:57:36;;;;;;;3.57;2.87;;;;;;;;;;5013561;28;20199;-63
2022/11/15 15:00:02;;;;;;;3.30;2.50;;;;;;;;;;5014831;28;20190;-65
2022/11/15 15:02:28;;;;;;;5.53;2.00;;;;;;;;;;5014997;28;20644;-64